Time;durP1;ratioP1;P1;durP2;ratioP2;P2;SDS_P1;SDS_P2;PMS_P1;PMS_P2;Temp;Humidity;BMP_temperature;BMP_pressure;BME280_temperature;BME280_humidity;BME280_pressure;Samples;Min_cycle;Max_cycle;Signal;HPM_P1;HPM_P2
2021/06/02 00:01:53;;;;;;;14.18;11.82;;;12.90;99.90;;;;;;4989807;28;20162;-73
2021/06/02 00:04:27;;;;;;;13.32;12.13;;;12.90;99.90;;;;;;5033371;28;20134;-74
2021/06/02 00:06:59;;;;;;;18.33;13.20;;;12.80;99.90;;;;;;5045457;28;20044;-75
2021/06/02 00:09:28;;;;;;;14.23;12.88;;;12.70;99.90;;;;;;5044197;28;20266;-76
2021/06/02 00:11:58;;;;;;;14.20;12.80;;;12.70;99.90;;;;;;4988784;28;20465;-75
2021/06/02 00:14:27;;;;;;;12.65;11.55;;;12.70;99.90;;;;;;5035945;28;20033;-75
2021/06/02 00:16:55;;;;;;;15.80;12.73;;;12.70;99.90;;;;;;5011765;28;20516;-74
2021/06/02 00:19:23;;;;;;;13.27;11.90;;;12.70;99.90;;;;;;5045857;28;20045;-76
2021/06/02 00:21:51;;;;;;;14.10;12.68;;;12.80;99.90;;;;;;5023257;28;20456;-75
2021/06/02 00:24:18;;;;;;;16.63;12.18;;;12.80;99.90;;;;;;5023504;28;20092;-76
2021/06/02 00:26:46;;;;;;;14.65;12.20;;;12.80;99.90;;;;;;5005348;28;20137;-74
2021/06/02 00:29:14;;;;;;;14.45;12.70;;;12.70;99.90;;;;;;5041487;28;20076;-76
2021/06/02 00:31:45;;;;;;;15.13;12.27;;;12.70;99.90;;;;;;5016529;28;20115;-74
2021/06/02 00:34:12;;;;;;;14.93;11.80;;;13.00;99.90;;;;;;4994745;28;20060;-75
2021/06/02 00:36:41;;;;;;;12.10;10.68;;;13.00;99.90;;;;;;5009681;28;20045;-74
2021/06/02 00:39:09;;;;;;;15.80;10.55;;;12.60;99.90;;;;;;5015233;28;20041;-74
2021/06/02 00:41:37;;;;;;;12.32;10.73;;;12.30;99.90;;;;;;5024198;28;20309;-74
2021/06/02 00:44:10;;;;;;;12.25;9.98;;;12.30;99.90;;;;;;5034634;28;20054;-75
2021/06/02 00:46:38;;;;;;;15.75;11.35;;;12.30;99.90;;;;;;5027527;28;20060;-75
2021/06/02 00:49:10;;;;;;;15.45;10.63;;;12.50;99.90;;;;;;5025712;28;20056;-75
2021/06/02 00:51:37;;;;;;;15.50;11.07;;;12.70;99.90;;;;;;5024639;28;20061;-75
2021/06/02 00:54:05;;;;;;;14.05;10.48;;;12.70;99.90;;;;;;5007949;28;20120;-75
2021/06/02 00:57:07;;;;;;;15.35;11.25;;;12.90;99.90;;;;;;5023185;28;20045;-76
2021/06/02 00:59:43;;;;;;;13.80;11.23;;;12.90;99.90;;;;;;4986019;28;20041;-76
2021/06/02 01:02:16;;;;;;;13.38;11.32;;;13.00;99.90;;;;;;5000630;28;20466;-77
2021/06/02 01:04:44;;;;;;;13.93;12.13;;;12.90;99.90;;;;;;5033175;28;20119;-75
2021/06/02 01:07:12;;;;;;;14.98;12.55;;;13.00;99.90;;;;;;5028117;28;20052;-76
2021/06/02 01:09:51;;;;;;;14.25;12.85;;;13.10;99.90;;;;;;5023877;28;20274;-76
2021/06/02 01:12:21;;;;;;;14.18;12.77;;;13.20;99.90;;;;;;5006138;28;20052;-75
2021/06/02 01:14:50;;;;;;;15.10;12.50;;;13.20;99.90;;;;;;5018985;28;20449;-74
2021/06/02 01:17:19;;;;;;;13.50;12.07;;;13.30;99.90;;;;;;5026740;28;20045;-77
2021/06/02 01:19:47;;;;;;;13.35;12.10;;;13.20;99.90;;;;;;5043283;28;20056;-76
2021/06/02 01:22:14;;;;;;;13.30;12.07;;;13.20;99.90;;;;;;4992002;28;20046;-75
2021/06/02 01:24:41;;;;;;;13.68;12.18;;;13.30;99.90;;;;;;5004295;28;20061;-75
2021/06/02 01:27:10;;;;;;;14.27;12.77;;;13.20;99.90;;;;;;4993482;28;20513;-75
2021/06/02 01:29:41;;;;;;;14.48;12.75;;;13.10;99.90;;;;;;5004401;28;20052;-75
2021/06/02 01:32:11;;;;;;;14.95;12.65;;;13.20;99.90;;;;;;5024227;28;20049;-76
2021/06/02 01:35:06;;;;;;;22.45;12.13;;;13.20;99.90;;;;;;5005793;28;20477;-76
2021/06/02 01:38:03;;;;;;;13.65;12.45;;;13.20;99.90;;;;;;4996389;28;20512;-77
2021/06/02 01:40:57;;;;;;;12.10;10.90;;;13.20;99.90;;;;;;5009315;28;20171;-75
2021/06/02 01:43:32;;;;;;;12.88;11.63;;;13.10;99.90;;;;;;5032414;28;20510;-75
2021/06/02 01:46:14;;;;;;;13.95;12.30;;;13.00;99.90;;;;;;5008399;28;20189;-76
2021/06/02 01:49:09;;;;;;;13.10;11.23;;;13.00;99.90;;;;;;5012752;28;20052;-75
2021/06/02 01:52:31;;;;;;;13.63;11.50;;;13.00;99.90;;;;;;5007819;28;20173;-76
2021/06/02 01:55:32;;;;;;;13.55;11.98;;;13.00;99.90;;;;;;5007337;28;20046;-75
2021/06/02 01:58:36;;;;;;;14.10;12.65;;;13.00;99.90;;;;;;5022909;28;20107;-75
2021/06/02 02:01:22;;;;;;;14.07;12.68;;;13.10;99.90;;;;;;5003262;28;20095;-75
2021/06/02 02:04:05;;;;;;;15.32;12.48;;;13.10;99.90;;;;;;5011078;28;20049;-75
2021/06/02 02:07:03;;;;;;;13.98;12.57;;;13.20;99.90;;;;;;5024140;28;20049;-75
2021/06/02 02:09:55;;;;;;;13.25;11.85;;;13.30;99.90;;;;;;4989346;28;20057;-76
2021/06/02 02:12:32;;;;;;;14.60;12.00;;;13.30;99.90;;;;;;5006811;28;20046;-76
2021/06/02 02:15:36;;;;;;;12.95;11.73;;;13.30;99.90;;;;;;5018330;28;20050;-75
2021/06/02 02:18:34;;;;;;;12.73;11.43;;;13.10;99.90;;;;;;5014358;28;20045;-76
2021/06/02 02:21:27;;;;;;;15.93;12.57;;;13.10;99.90;;;;;;5042602;28;20044;-76
2021/06/02 02:24:12;;;;;;;12.45;11.13;;;13.00;99.90;;;;;;5044387;28;20049;-75
2021/06/02 02:26:42;;;;;;;;;;;13.10;99.90;;;;;;5023154;28;20045;-77
2021/06/02 02:29:37;;;;;;;12.40;11.20;;;13.00;99.90;;;;;;5022309;28;19921;-76
2021/06/02 02:32:10;;;;;;;18.15;12.85;;;13.10;99.90;;;;;;4988466;28;20107;-76
2021/06/02 02:35:15;;;;;;;12.98;11.48;;;13.30;99.90;;;;;;5020170;28;20049;-76
2021/06/02 02:38:06;;;;;;;15.02;11.98;;;13.20;99.90;;;;;;5002586;28;20049;-75
2021/06/02 02:40:55;;;;;;;12.85;11.52;;;13.20;99.90;;;;;;5022314;28;20057;-76
2021/06/02 02:43:43;;;;;;;16.58;12.02;;;13.20;99.90;;;;;;5031610;28;20296;-76
2021/06/02 02:46:15;;;;;;;13.20;11.93;;;13.30;99.90;;;;;;5009825;28;20046;-76
2021/06/02 02:49:03;;;;;;;17.67;12.05;;;13.20;99.90;;;;;;5022407;28;20534;-76
2021/06/02 02:52:08;;;;;;;13.57;11.38;;;13.10;99.90;;;;;;5027827;28;20451;-76
2021/06/02 02:54:55;;;;;;;13.18;11.88;;;13.10;99.90;;;;;;5005008;28;20073;-75
2021/06/02 02:57:59;;;;;;;12.25;10.95;;;13.20;99.90;;;;;;5011623;28;20246;-76
2021/06/02 03:00:42;;;;;;;13.23;11.70;;;13.30;99.90;;;;;;5018856;28;20111;-76
2021/06/02 03:03:22;;;;;;;13.38;11.90;;;13.30;99.90;;;;;;5021759;28;20426;-76
2021/06/02 03:06:05;;;;;;;13.02;11.82;;;13.20;99.90;;;;;;5021496;28;20041;-75
2021/06/02 03:08:47;;;;;;;12.68;11.35;;;13.20;99.90;;;;;;5022038;28;20185;-75
2021/06/02 03:11:23;;;;;;;17.83;12.73;;;13.10;99.90;;;;;;5002600;28;20050;-76
2021/06/02 03:14:17;;;;;;;12.27;11.02;;;13.20;99.90;;;;;;5028133;28;20441;-76
2021/06/02 03:16:57;;;;;;;14.38;11.45;;;13.20;99.90;;;;;;5010750;28;20478;-75
2021/06/02 03:19:58;;;;;;;14.35;11.80;;;13.10;99.90;;;;;;4987570;28;20522;-75
2021/06/02 03:22:56;;;;;;;13.00;11.35;;;13.10;99.90;;;;;;4991641;28;20526;-75
2021/06/02 03:25:45;;;;;;;12.85;11.50;;;13.20;99.90;;;;;;5021880;28;20061;-76
2021/06/02 03:28:19;;;;;;;14.13;11.55;;;13.20;99.90;;;;;;5006476;28;20453;-74
2021/06/02 03:31:08;;;;;;;16.17;12.48;;;13.20;99.90;;;;;;5011935;28;20064;-76
2021/06/02 03:33:53;;;;;;;14.50;12.77;;;13.30;99.90;;;;;;4990047;28;20060;-76
2021/06/02 03:36:59;;;;;;;14.52;12.57;;;13.40;99.90;;;;;;5023892;28;20456;-76
2021/06/02 03:39:47;;;;;;;15.00;13.30;;;13.40;99.90;;;;;;4990005;28;20050;-74
2021/06/02 03:42:51;;;;;;;14.65;13.10;;;13.40;99.90;;;;;;5007358;28;20169;-76
2021/06/02 03:45:28;;;;;;;13.68;12.20;;;13.40;99.90;;;;;;5029352;28;20103;-75
2021/06/02 03:48:11;;;;;;;14.55;13.13;;;13.40;99.90;;;;;;4989174;28;20050;-75
2021/06/02 03:51:15;;;;;;;15.30;13.82;;;13.60;99.90;;;;;;4998938;28;20053;-76
2021/06/02 03:53:51;;;;;;;16.08;13.63;;;13.70;99.90;;;;;;5009245;28;20527;-76
2021/06/02 03:56:42;;;;;;;13.60;12.27;;;13.80;99.90;;;;;;5023915;28;20621;-76
2021/06/02 03:59:34;;;;;;;15.13;13.45;;;13.80;99.90;;;;;;4999265;28;20049;-75
2021/06/02 04:02:16;;;;;;;14.50;12.93;;;13.90;99.90;;;;;;5002130;28;20174;-75
2021/06/02 04:05:05;;;;;;;16.35;13.60;;;14.00;99.90;;;;;;5034289;28;20334;-74
2021/06/02 04:08:09;;;;;;;16.05;13.85;;;14.00;99.90;;;;;;5023886;28;20104;-74
2021/06/02 04:10:45;;;;;;;14.75;13.20;;;14.10;99.90;;;;;;5008728;28;20515;-75
2021/06/02 04:13:43;;;;;;;15.07;13.50;;;14.20;99.90;;;;;;5033254;28;20121;-74
2021/06/02 04:16:16;;;;;;;17.75;12.60;;;14.30;99.90;;;;;;5046099;28;20043;-75
2021/06/02 04:18:46;;;;;;;15.95;14.40;;;14.50;99.90;;;;;;5044791;28;20450;-74
2021/06/02 04:21:20;;;;;;;16.73;13.45;;;14.60;99.90;;;;;;4998175;28;20113;-73
2021/06/02 04:23:47;;;;;;;15.75;14.05;;;14.60;99.90;;;;;;5011274;28;20064;-75
2021/06/02 04:26:14;;;;;;;14.73;13.32;;;14.80;99.90;;;;;;5014445;28;20265;-73
2021/06/02 04:28:42;;;;;;;16.45;13.88;;;14.90;99.90;;;;;;5013942;28;20056;-75
2021/06/02 04:31:11;;;;;;;14.88;13.55;;;15.00;99.90;;;;;;5029083;28;20449;-74
2021/06/02 04:33:40;;;;;;;17.55;14.57;;;15.20;99.90;;;;;;5009752;28;20535;-75
2021/06/02 04:36:11;;;;;;;16.67;14.80;;;15.30;99.90;;;;;;5023887;28;20042;-75
2021/06/02 04:38:38;;;;;;;16.00;14.50;;;15.70;99.90;;;;;;5009211;28;20049;-76
2021/06/02 04:41:07;;;;;;;16.40;15.15;;;16.20;99.90;;;;;;5017552;28;20045;-76
2021/06/02 04:43:36;;;;;;;16.55;15.13;;;16.70;99.90;;;;;;5034685;28;20041;-76
2021/06/02 04:46:06;;;;;;;16.23;15.02;;;17.00;99.90;;;;;;5032782;28;20046;-75
2021/06/02 04:48:33;;;;;;;16.15;14.85;;;17.20;99.90;;;;;;5025042;28;20171;-75
2021/06/02 04:51:37;;;;;;;16.30;14.65;;;17.30;99.90;;;;;;4992885;28;20081;-74
2021/06/02 04:54:25;;;;;;;15.98;14.38;;;17.50;99.90;;;;;;5024571;28;20608;-75
2021/06/02 04:57:14;;;;;;;16.63;15.00;;;17.60;99.90;;;;;;5005183;28;20038;-75
2021/06/02 05:00:00;;;;;;;14.25;13.07;;;17.90;99.90;;;;;;5005347;28;20400;-75
2021/06/02 05:02:36;;;;;;;16.70;15.07;;;17.80;99.90;;;;;;5005473;28;20045;-75
2021/06/02 05:05:18;;;;;;;17.17;15.50;;;18.20;99.90;;;;;;5004197;28;20594;-75
2021/06/02 05:08:09;;;;;;;16.33;14.98;;;18.70;99.90;;;;;;5018367;28;20381;-77
2021/06/02 05:11:11;;;;;;;16.88;15.48;;;19.30;99.90;;;;;;5021146;28;20056;-75
2021/06/02 05:14:16;;;;;;;16.90;15.40;;;19.70;99.90;;;;;;5017426;28;20126;-74
2021/06/02 05:17:16;;;;;;;15.68;14.65;;;19.80;99.90;;;;;;5004560;28;20050;-77
2021/06/02 05:22:25;;;;;;;15.35;14.15;;;20.30;99.90;;;;;;5008519;28;20505;-75
2021/06/02 05:25:04;;;;;;;14.45;13.43;;;20.70;99.90;;;;;;5009417;28;20687;-76
2021/06/02 05:27:49;;;;;;;14.77;13.85;;;20.90;99.90;;;;;;5005086;28;20049;-75
2021/06/02 05:30:40;;;;;;;14.13;13.13;;;20.70;99.90;;;;;;5023913;28;20052;-76
2021/06/02 05:33:28;;;;;;;15.02;14.02;;;20.80;99.90;;;;;;5021624;28;20053;-76
2021/06/02 05:36:25;;;;;;;14.85;13.95;;;21.10;99.90;;;;;;4991183;28;20053;-76
2021/06/02 05:39:21;;;;;;;15.30;14.20;;;20.80;99.90;;;;;;4991055;28;20125;-76
2021/06/02 05:42:03;;;;;;;14.98;13.77;;;20.80;99.90;;;;;;5025837;28;20056;-77
2021/06/02 05:45:20;;;;;;;15.90;14.60;;;20.60;99.90;;;;;;5008380;28;20070;-76
2021/06/02 05:48:02;;;;;;;14.65;13.45;;;20.60;99.90;;;;;;5005017;28;20099;-75
2021/06/02 05:50:53;;;;;;;15.07;13.70;;;20.50;99.90;;;;;;5014618;28;20045;-75
2021/06/02 05:53:37;;;;;;;16.02;14.77;;;20.40;99.90;;;;;;5027562;28;20046;-75
2021/06/02 05:56:47;;;;;;;16.00;14.63;;;20.00;99.90;;;;;;5004333;28;20054;-76
2021/06/02 05:59:25;;;;;;;15.88;14.65;;;19.80;99.90;;;;;;5018597;28;20108;-74
2021/06/02 06:01:54;;;;;;;14.60;13.55;;;19.80;99.90;;;;;;5022209;28;20053;-73
2021/06/02 06:05:03;;;;;;;15.45;14.35;;;19.80;99.90;;;;;;5004353;28;20711;-73
2021/06/02 06:08:04;;;;;;;15.40;14.30;;;19.80;99.90;;;;;;5006875;28;20061;-77
2021/06/02 06:10:45;;;;;;;15.95;14.75;;;19.80;99.90;;;;;;4996995;28;20915;-77
2021/06/02 06:13:49;;;;;;;15.95;14.50;;;19.80;99.90;;;;;;5007729;28;20454;-77
2021/06/02 06:16:38;;;;;;;14.70;13.70;;;20.10;99.90;;;;;;5018012;28;20049;-77
2021/06/02 06:19:43;;;;;;;15.35;14.00;;;20.30;99.90;;;;;;5026224;28;20132;-77
2021/06/02 06:22:36;;;;;;;14.43;13.32;;;20.80;99.90;;;;;;5012434;28;20046;-77
2021/06/02 06:25:10;;;;;;;15.50;14.40;;;21.00;99.90;;;;;;4981978;28;20046;-77
2021/06/02 06:27:44;;;;;;;15.70;14.50;;;21.20;99.90;;;;;;5025017;28;20045;-77
2021/06/02 06:30:31;;;;;;;14.90;13.77;;;21.20;99.90;;;;;;5007945;28;20052;-77
2021/06/02 06:33:01;;;;;;;16.27;14.98;;;21.60;99.90;;;;;;4996223;28;20058;-77
2021/06/02 06:35:29;;;;;;;15.50;14.15;;;21.80;99.90;;;;;;5002646;28;20068;-77
2021/06/02 06:37:57;;;;;;;14.82;13.65;;;21.60;99.90;;;;;;4990529;28;20045;-77
2021/06/02 06:40:27;;;;;;;15.20;14.10;;;21.50;99.90;;;;;;5022829;28;20403;-77
2021/06/02 06:42:56;;;;;;;14.20;13.20;;;21.60;99.90;;;;;;5006802;28;20057;-77
2021/06/02 06:45:32;;;;;;;15.35;14.15;;;21.80;99.90;;;;;;5029883;28;20713;-77
2021/06/02 06:48:07;;;;;;;14.75;13.75;;;22.10;99.90;;;;;;5024159;28;20057;-77
2021/06/02 06:50:35;;;;;;;15.02;14.13;;;22.10;99.90;;;;;;5022377;28;20049;-77
2021/06/02 06:53:03;;;;;;;15.60;14.57;;;22.20;99.90;;;;;;5016744;28;20046;-77
2021/06/02 06:55:31;;;;;;;15.85;14.77;;;21.90;99.90;;;;;;5004106;28;20049;-77
2021/06/02 06:57:59;;;;;;;16.20;15.00;;;22.00;99.90;;;;;;5012088;28;20144;-77
2021/06/02 07:00:27;;;;;;;15.02;13.88;;;21.90;99.90;;;;;;5020286;28;20033;-77
2021/06/02 07:02:54;;;;;;;15.02;13.95;;;21.80;99.90;;;;;;5004241;28;20053;-76
2021/06/02 07:05:23;;;;;;;15.02;14.00;;;21.90;99.90;;;;;;5006271;28;20049;-77
2021/06/02 07:07:51;;;;;;;15.30;14.30;;;22.30;99.90;;;;;;5025689;28;20418;-77
2021/06/02 07:10:20;;;;;;;15.63;14.50;;;22.10;99.90;;;;;;5018783;28;20080;-77
2021/06/02 07:12:48;;;;;;;15.70;14.52;;;22.10;99.90;;;;;;5007712;28;20064;-77
2021/06/02 07:15:17;;;;;;;15.38;14.35;;;22.50;99.90;;;;;;5021687;28;20041;-77
2021/06/02 07:17:51;;;;;;;15.57;14.40;;;22.70;99.90;;;;;;5003964;28;20464;-76
2021/06/02 07:20:23;;;;;;;14.60;13.57;;;23.00;99.90;;;;;;5003488;28;20045;-76
2021/06/02 07:22:51;;;;;;;15.07;13.93;;;23.10;99.90;;;;;;5001971;28;20045;-76
2021/06/02 07:25:22;;;;;;;15.27;14.13;;;23.40;99.90;;;;;;4988709;28;20048;-77
2021/06/02 07:27:49;;;;;;;15.60;14.43;;;22.90;99.90;;;;;;5015715;28;20137;-77
2021/06/02 07:30:18;;;;;;;15.52;14.52;;;22.80;99.90;;;;;;5021435;28;20045;-76
2021/06/02 07:32:45;;;;;;;14.80;13.90;;;23.00;99.90;;;;;;4989514;28;20045;-77
2021/06/02 07:35:13;;;;;;;14.85;13.85;;;23.00;99.90;;;;;;5020254;28;20357;-76
2021/06/02 07:37:40;;;;;;;15.55;14.50;;;23.00;99.90;;;;;;4991420;28;20358;-76
2021/06/02 07:40:08;;;;;;;15.88;14.98;;;23.00;99.90;;;;;;5009957;28;20041;-76
2021/06/02 07:42:35;;;;;;;16.70;15.38;;;23.20;99.90;;;;;;5012438;28;20362;-76
2021/06/02 07:45:04;;;;;;;15.60;14.65;;;23.50;99.90;;;;;;5032307;28;20483;-77
2021/06/02 07:47:31;;;;;;;16.13;14.90;;;23.30;99.90;;;;;;5002861;28;20076;-76
2021/06/02 07:49:58;;;;;;;15.90;14.73;;;23.30;99.90;;;;;;4997824;28;20119;-76
2021/06/02 07:52:26;;;;;;;16.05;14.73;;;23.30;99.90;;;;;;4984791;28;20049;-76
2021/06/02 07:54:53;;;;;;;16.10;15.00;;;23.60;99.90;;;;;;4990674;28;20068;-77
2021/06/02 07:57:20;;;;;;;16.95;15.77;;;24.00;99.90;;;;;;5008186;28;20183;-76
2021/06/02 07:59:47;;;;;;;15.73;14.63;;;24.30;99.90;;;;;;5000769;28;20045;-76
2021/06/02 08:02:14;;;;;;;16.13;15.20;;;24.40;99.90;;;;;;5006327;28;20041;-76
2021/06/02 08:04:42;;;;;;;16.23;14.98;;;24.00;99.90;;;;;;5025309;28;20061;-76
2021/06/02 08:07:09;;;;;;;14.95;14.05;;;24.10;99.90;;;;;;4994437;28;20148;-77
2021/06/02 08:09:37;;;;;;;15.07;14.18;;;24.60;99.90;;;;;;5005959;28;20240;-74
2021/06/02 08:12:10;;;;;;;14.48;13.63;;;24.50;99.90;;;;;;5019061;28;20207;-76
2021/06/02 08:14:38;;;;;;;15.95;15.05;;;24.70;99.90;;;;;;5016937;28;20060;-75
2021/06/02 08:17:06;;;;;;;15.63;14.63;;;25.40;99.90;;;;;;5002229;28;20037;-76
2021/06/02 08:19:33;;;;;;;15.48;14.48;;;25.50;99.90;;;;;;5022154;28;20080;-76
2021/06/02 08:22:00;;;;;;;16.30;15.30;;;25.60;99.90;;;;;;5028660;28;20064;-76
2021/06/02 08:24:27;;;;;;;13.90;13.10;;;25.40;99.70;;;;;;5008273;28;20068;-76
2021/06/02 08:26:53;;;;;;;15.13;14.15;;;25.60;98.60;;;;;;5023586;28;20127;-77
2021/06/02 08:29:20;;;;;;;15.60;14.18;;;25.80;99.40;;;;;;5023934;28;20153;-74
2021/06/02 08:31:47;;;;;;;15.30;14.40;;;25.80;97.90;;;;;;5007822;28;20049;-75
2021/06/02 08:34:14;;;;;;;16.13;14.93;;;26.30;98.20;;;;;;5006805;28;20156;-73
2021/06/02 08:36:41;;;;;;;14.93;13.73;;;26.20;94.70;;;;;;5014957;28;20073;-73
2021/06/02 08:39:08;;;;;;;15.02;13.95;;;26.10;93.90;;;;;;5013211;28;20049;-73
2021/06/02 08:41:39;;;;;;;15.13;14.13;;;26.10;92.50;;;;;;5023570;28;20052;-74
2021/06/02 08:44:07;;;;;;;15.50;14.57;;;25.90;93.40;;;;;;5034166;28;20084;-72
2021/06/02 08:46:36;;;;;;;14.50;13.60;;;25.80;93.60;;;;;;5006574;28;20099;-72
2021/06/02 08:49:10;;;;;;;14.43;13.45;;;26.00;93.60;;;;;;5020080;28;20048;-74
2021/06/02 08:51:37;;;;;;;14.20;13.40;;;26.20;93.00;;;;;;5023886;28;20053;-74
2021/06/02 08:54:04;;;;;;;14.40;13.40;;;26.40;93.30;;;;;;5004789;28;20148;-74
2021/06/02 08:56:38;;;;;;;14.18;13.38;;;26.70;90.10;;;;;;4988390;28;20709;-74
2021/06/02 08:59:05;;;;;;;14.38;13.32;;;27.00;92.10;;;;;;5022557;28;20077;-73
2021/06/02 09:01:32;;;;;;;14.35;13.55;;;27.10;92.10;;;;;;5021762;28;20127;-75
2021/06/02 09:04:02;;;;;;;14.13;13.32;;;27.00;91.00;;;;;;4986970;28;20068;-74
2021/06/02 09:06:30;;;;;;;15.00;14.10;;;27.40;88.80;;;;;;5003889;28;20057;-74
2021/06/02 09:09:00;;;;;;;13.90;13.10;;;27.70;85.00;;;;;;4999518;28;20406;-74
2021/06/02 09:11:27;;;;;;;15.15;14.18;;;27.70;84.30;;;;;;5004416;28;20088;-75
2021/06/02 09:13:54;;;;;;;13.93;13.13;;;27.40;82.40;;;;;;5027049;28;20049;-75
2021/06/02 09:16:23;;;;;;;13.80;13.07;;;27.20;88.60;;;;;;5014389;28;20108;-75
2021/06/02 09:19:07;;;;;;;14.50;13.55;;;27.00;85.30;;;;;;5006216;28;20054;-76
2021/06/02 09:21:40;;;;;;;14.20;13.38;;;26.90;85.30;;;;;;5006345;28;20142;-74
2021/06/02 09:24:07;;;;;;;14.60;13.80;;;26.60;87.00;;;;;;5020451;28;20091;-76
2021/06/02 09:26:48;;;;;;;14.55;13.68;;;26.50;87.60;;;;;;5016417;28;20064;-75
2021/06/02 09:29:15;;;;;;;14.55;13.75;;;26.60;88.50;;;;;;5005625;28;20584;-73
2021/06/02 09:31:47;;;;;;;14.57;13.60;;;26.40;87.10;;;;;;5040500;28;20049;-74
2021/06/02 09:34:18;;;;;;;14.50;13.68;;;26.00;88.80;;;;;;4997161;28;20272;-74
2021/06/02 09:36:48;;;;;;;14.45;13.52;;;25.90;88.90;;;;;;5004074;28;20490;-75
2021/06/02 09:39:16;;;;;;;15.02;14.13;;;25.80;86.60;;;;;;5010156;28;20065;-75
2021/06/02 09:41:49;;;;;;;14.60;13.60;;;25.90;88.30;;;;;;5000261;28;20065;-75
2021/06/02 09:44:18;;;;;;;14.27;13.43;;;25.90;86.70;;;;;;5025042;28;20128;-74
2021/06/02 09:47:07;;;;;;;13.88;13.18;;;25.80;84.60;;;;;;5033430;28;20119;-75
2021/06/02 09:49:54;;;;;;;14.77;13.85;;;25.90;88.80;;;;;;5006247;28;20054;-75
2021/06/02 09:52:41;;;;;;;14.30;13.55;;;26.00;85.00;;;;;;5013913;28;20443;-75
2021/06/02 09:55:14;;;;;;;13.98;13.07;;;26.30;84.90;;;;;;4986398;28;20046;-75
2021/06/02 09:57:41;;;;;;;14.60;13.60;;;26.30;84.40;;;;;;5008905;28;20327;-75
2021/06/02 10:00:08;;;;;;;14.15;13.23;;;26.40;84.00;;;;;;5020416;28;20073;-74
2021/06/02 10:02:41;;;;;;;13.35;12.55;;;26.50;86.60;;;;;;5013424;28;20056;-75
2021/06/02 10:05:11;;;;;;;14.02;13.00;;;26.50;85.20;;;;;;5020619;28;20095;-74
2021/06/02 10:07:47;;;;;;;13.90;13.00;;;26.30;85.60;;;;;;5022728;28;20457;-74
2021/06/02 10:10:19;;;;;;;13.90;13.20;;;26.20;85.50;;;;;;5007713;28;20049;-74
2021/06/02 10:13:02;;;;;;;13.90;13.13;;;26.40;84.70;;;;;;5017245;28;20049;-73
2021/06/02 10:15:53;;;;;;;13.98;12.90;;;26.50;85.60;;;;;;5030271;28;20098;-73
2021/06/02 10:18:32;;;;;;;13.73;12.75;;;26.60;86.70;;;;;;5028444;28;20045;-74
2021/06/02 10:21:15;;;;;;;14.50;13.68;;;26.60;86.40;;;;;;5005359;28;20123;-74
2021/06/02 10:23:45;;;;;;;13.90;12.95;;;26.40;83.70;;;;;;5014990;28;20053;-75
2021/06/02 10:26:17;;;;;;;14.07;13.48;;;26.10;85.60;;;;;;5003913;28;20060;-73
2021/06/02 10:28:46;;;;;;;13.68;12.88;;;26.10;85.20;;;;;;5005299;28;20099;-76
2021/06/02 10:31:15;;;;;;;14.15;13.35;;;26.10;84.20;;;;;;5025512;28;20461;-77
2021/06/02 10:33:42;;;;;;;14.27;13.43;;;26.00;85.50;;;;;;5015410;28;20109;-75
2021/06/02 10:36:10;;;;;;;14.82;13.93;;;26.00;88.00;;;;;;4993537;28;20041;-77
2021/06/02 10:38:46;;;;;;;13.80;13.00;;;25.90;87.30;;;;;;5006654;28;20413;-78
2021/06/02 10:41:38;;;;;;;14.57;13.68;;;25.90;87.30;;;;;;5007842;28;20042;-77
2021/06/02 10:44:09;;;;;;;15.98;14.73;;;26.00;88.30;;;;;;5030256;28;20651;-74
2021/06/02 10:46:42;;;;;;;14.88;14.07;;;25.60;89.10;;;;;;5032988;28;20478;-75
2021/06/02 10:49:09;;;;;;;15.98;15.13;;;25.70;90.90;;;;;;4992501;28;20465;-77
2021/06/02 10:51:36;;;;;;;15.13;14.23;;;25.60;89.00;;;;;;5022210;28;20045;-75
2021/06/02 10:54:06;;;;;;;14.63;13.75;;;25.70;90.60;;;;;;5004180;28;20049;-76
2021/06/02 10:56:35;;;;;;;14.93;14.20;;;26.30;88.20;;;;;;5020231;28;20052;-76
2021/06/02 10:59:03;;;;;;;15.02;14.23;;;26.70;88.00;;;;;;5019821;28;20481;-76
2021/06/02 11:01:30;;;;;;;15.68;14.68;;;26.90;86.20;;;;;;5002449;28;20067;-78
2021/06/02 11:04:06;;;;;;;14.63;13.82;;;27.10;88.80;;;;;;4996255;28;20060;-77
2021/06/02 11:06:35;;;;;;;15.35;14.23;;;27.30;85.50;;;;;;4997275;28;20050;-77
2021/06/02 11:09:06;;;;;;;16.02;15.20;;;26.50;86.70;;;;;;4989146;28;20054;-77
2021/06/02 11:11:46;;;;;;;15.82;14.93;;;26.10;87.40;;;;;;5022573;28;20583;-77
2021/06/02 11:14:16;;;;;;;15.02;14.07;;;25.30;88.00;;;;;;5023712;28;20545;-78
2021/06/02 11:16:43;;;;;;;15.00;14.20;;;25.60;87.50;;;;;;5001413;28;20692;-77
2021/06/02 11:19:16;;;;;;;15.07;14.07;;;26.40;86.30;;;;;;4986595;28;20461;-78
2021/06/02 11:21:44;;;;;;;14.32;13.52;;;26.90;87.00;;;;;;4987262;28;20502;-77
2021/06/02 11:24:40;;;;;;;14.85;14.05;;;27.50;85.40;;;;;;4989393;28;20091;-77
2021/06/02 11:27:13;;;;;;;13.68;12.88;;;26.70;85.80;;;;;;5024396;28;20103;-77
2021/06/02 11:29:52;;;;;;;14.93;13.80;;;26.90;82.00;;;;;;5006866;28;20045;-78
2021/06/02 11:32:32;;;;;;;14.20;13.15;;;27.10;84.40;;;;;;5009639;28;20052;-78
2021/06/02 11:35:05;;;;;;;13.48;12.85;;;27.00;84.50;;;;;;5007256;28;20045;-78
2021/06/02 11:37:34;;;;;;;13.98;13.18;;;26.90;83.50;;;;;;4991999;28;20399;-78
2021/06/02 11:40:08;;;;;;;13.82;12.98;;;26.30;83.60;;;;;;4992948;28;20294;-77
2021/06/02 11:42:45;;;;;;;13.75;13.05;;;26.60;85.00;;;;;;4998193;28;20056;-78
2021/06/02 11:45:17;;;;;;;13.48;12.68;;;27.00;82.20;;;;;;5001508;28;20044;-78
2021/06/02 11:47:48;;;;;;;15.70;14.70;;;27.10;79.80;;;;;;5018071;28;20041;-77
2021/06/02 11:50:18;;;;;;;15.05;14.00;;;26.70;83.00;;;;;;5018763;28;20141;-78
2021/06/02 11:52:52;;;;;;;15.32;14.32;;;26.60;85.60;;;;;;5008728;28;20062;-77
2021/06/02 11:55:20;;;;;;;14.77;13.85;;;26.60;86.20;;;;;;4992323;28;20564;-76
2021/06/02 11:57:51;;;;;;;13.63;12.93;;;26.80;86.60;;;;;;5023549;28;20048;-78
2021/06/02 12:00:22;;;;;;;14.90;14.10;;;27.10;82.30;;;;;;4991942;28;20094;-77
2021/06/02 12:03:07;;;;;;;15.40;14.20;;;27.30;80.30;;;;;;5004430;28;20416;-78
2021/06/02 12:05:38;;;;;;;13.88;13.18;;;27.60;80.00;;;;;;5013087;28;20160;-78
2021/06/02 12:08:13;;;;;;;14.15;13.15;;;27.60;76.90;;;;;;5007204;28;20037;-78
2021/06/02 12:10:44;;;;;;;12.63;11.90;;;27.40;79.50;;;;;;5001414;28;20064;-77
2021/06/02 12:13:33;;;;;;;13.05;12.45;;;27.40;74.30;;;;;;5006071;28;20093;-77
2021/06/02 12:16:11;;;;;;;13.70;12.85;;;27.40;72.50;;;;;;4992890;28;20041;-79
2021/06/02 12:18:43;;;;;;;13.82;13.23;;;27.60;71.90;;;;;;4997065;28;20050;-78
2021/06/02 12:21:24;;;;;;;12.65;12.05;;;27.60;70.00;;;;;;5010556;28;20113;-78
2021/06/02 12:23:58;;;;;;;13.48;12.27;;;27.80;71.30;;;;;;5017885;28;20065;-77
2021/06/02 12:26:29;;;;;;;13.63;12.93;;;27.90;72.30;;;;;;5004479;28;20144;-77
2021/06/02 12:28:58;;;;;;;14.27;13.57;;;27.70;74.30;;;;;;5022565;28;20046;-77
2021/06/02 12:31:36;;;;;;;13.63;12.93;;;27.90;73.50;;;;;;5006888;28;20068;-77
2021/06/02 12:34:10;;;;;;;14.00;13.20;;;27.50;74.40;;;;;;5022840;28;20053;-78
2021/06/02 12:36:42;;;;;;;14.10;13.48;;;27.60;73.70;;;;;;4997566;28;20399;-79
2021/06/02 12:39:12;;;;;;;14.95;13.90;;;27.60;78.30;;;;;;5001110;28;20041;-78
2021/06/02 12:41:42;;;;;;;12.63;11.93;;;27.50;74.40;;;;;;4991244;28;20046;-78
2021/06/02 12:44:09;;;;;;;14.45;13.70;;;27.20;72.50;;;;;;5033027;28;20049;-77
2021/06/02 12:46:36;;;;;;;13.27;12.68;;;26.80;73.20;;;;;;5038645;28;20064;-77
2021/06/02 12:49:08;;;;;;;12.65;11.95;;;26.60;75.60;;;;;;5025359;28;20050;-78
2021/06/02 12:51:38;;;;;;;13.82;13.23;;;26.60;76.10;;;;;;5023462;28;20045;-77
2021/06/02 12:54:05;;;;;;;14.43;13.82;;;26.70;76.90;;;;;;4992115;28;20057;-78
2021/06/02 12:56:32;;;;;;;14.43;13.70;;;26.60;76.50;;;;;;5016259;28;20059;-78
2021/06/02 12:58:59;;;;;;;14.02;13.13;;;27.00;78.80;;;;;;4994087;28;20378;-78
2021/06/02 13:01:32;;;;;;;13.30;12.52;;;27.30;73.70;;;;;;5021672;28;20493;-78
2021/06/02 13:04:01;;;;;;;13.40;12.70;;;27.50;71.00;;;;;;5023208;28;20506;-79
2021/06/02 13:06:30;;;;;;;14.82;13.82;;;27.70;70.10;;;;;;5020122;28;20057;-78
2021/06/02 13:09:00;;;;;;;14.35;13.55;;;28.20;73.30;;;;;;4998214;28;20046;-77
2021/06/02 13:11:31;;;;;;;14.45;13.50;;;28.20;72.80;;;;;;4988771;28;20545;-78
2021/06/02 13:14:01;;;;;;;14.18;13.50;;;28.00;76.80;;;;;;5014424;28;20477;-77
2021/06/02 13:16:29;;;;;;;14.80;13.73;;;27.70;72.80;;;;;;5001442;28;20085;-78
2021/06/02 13:19:02;;;;;;;14.48;13.77;;;27.40;75.90;;;;;;4988188;28;20042;-78